createdAt,value
2018-12-23T00:01:52.016Z,24.92
2018-12-23T00:04:20.108Z,27.53
2018-12-23T00:06:48.163Z,25.30
2018-12-23T00:09:16.239Z,24.32
2018-12-23T00:11:44.912Z,23.62
2018-12-23T00:14:12.599Z,24.00
2018-12-23T00:16:40.441Z,23.95
2018-12-23T00:19:08.180Z,23.10
2018-12-23T00:21:35.732Z,24.98
2018-12-23T00:24:03.053Z,24.12
2018-12-23T00:26:30.397Z,23.40
2018-12-23T00:28:57.711Z,23.90
2018-12-23T00:31:25.817Z,24.18
2018-12-23T00:33:53.245Z,24.27
2018-12-23T00:36:20.984Z,24.23
2018-12-23T00:38:48.367Z,22.87
2018-12-23T00:41:16.328Z,24.60
2018-12-23T00:43:44.009Z,25.20
2018-12-23T00:46:11.386Z,25.05
2018-12-23T00:48:39.142Z,24.27
2018-12-23T00:51:06.528Z,23.60
2018-12-23T00:53:33.892Z,24.92
2018-12-23T00:56:02.119Z,25.00
2018-12-23T00:58:29.784Z,25.80
2018-12-23T01:00:57.442Z,26.23
2018-12-23T01:03:24.967Z,24.93
2018-12-23T01:05:52.426Z,26.17
2018-12-23T01:08:19.936Z,26.40
2018-12-23T01:10:47.448Z,25.57
2018-12-23T01:13:15.449Z,23.40
2018-12-23T01:15:43.084Z,23.02
2018-12-23T01:18:10.724Z,23.80
2018-12-23T01:20:38.107Z,22.63
2018-12-23T01:23:05.792Z,21.25
2018-12-23T01:25:33.129Z,19.90
2018-12-23T01:28:01.430Z,21.12
2018-12-23T01:30:29.168Z,19.67
2018-12-23T01:32:56.601Z,19.90
2018-12-23T01:35:24.017Z,21.17
2018-12-23T01:37:51.707Z,20.57
2018-12-23T01:40:19.114Z,20.50
2018-12-23T01:42:46.828Z,20.60
2018-12-23T01:45:14.538Z,20.20
2018-12-23T01:47:42.132Z,18.70
2018-12-23T01:50:09.504Z,18.40
2018-12-23T01:52:37.197Z,19.55
2018-12-23T01:55:04.984Z,17.77
2018-12-23T01:57:33.273Z,17.70
2018-12-23T02:00:01.455Z,17.00
2018-12-23T02:02:29.110Z,17.42
2018-12-23T02:04:56.525Z,18.15
2018-12-23T02:07:23.885Z,16.85
2018-12-23T02:09:51.680Z,16.35
2018-12-23T02:12:20.281Z,16.00
2018-12-23T02:14:48.001Z,16.00
2018-12-23T02:17:15.347Z,14.90
2018-12-23T02:19:43.356Z,14.75
2018-12-23T02:22:10.897Z,15.30
2018-12-23T02:24:38.905Z,15.48
2018-12-23T02:27:09.320Z,16.23
2018-12-23T02:29:37.262Z,14.68
2018-12-23T02:32:04.941Z,14.23
2018-12-23T02:34:32.286Z,13.97
2018-12-23T02:36:59.977Z,14.83
2018-12-23T02:39:27.618Z,15.13
2018-12-23T02:41:55.386Z,14.75
2018-12-23T02:44:22.799Z,14.58
2018-12-23T02:46:50.480Z,16.00
2018-12-23T02:49:19.516Z,15.70
2018-12-23T02:51:47.168Z,16.67
2018-12-23T02:54:15.246Z,16.70
2018-12-23T02:56:42.685Z,17.40
2018-12-23T02:59:10.674Z,19.40
2018-12-23T03:01:38.632Z,18.87
2018-12-23T03:04:07.021Z,20.15
2018-12-23T03:06:34.788Z,20.70
2018-12-23T03:09:02.320Z,20.90
2018-12-23T03:11:29.689Z,21.52
2018-12-23T03:13:57.042Z,21.50
2018-12-23T03:16:24.687Z,21.77
2018-12-23T03:18:52.074Z,22.20
2018-12-23T03:21:19.737Z,21.85
2018-12-23T03:23:47.160Z,22.52
2018-12-23T03:26:14.549Z,22.62
2018-12-23T03:28:42.272Z,22.55
2018-12-23T03:31:10.184Z,22.50
2018-12-23T03:33:38.032Z,23.10
2018-12-23T03:36:14.782Z,22.40
2018-12-23T03:38:35.765Z,21.35
2018-12-23T03:41:03.910Z,21.30
2018-12-23T03:43:31.220Z,21.30
2018-12-23T03:45:58.593Z,20.55
2018-12-23T03:48:27.114Z,20.32
2018-12-23T03:50:55.065Z,20.77
2018-12-23T03:53:22.730Z,20.02
2018-12-23T03:55:50.697Z,19.87
2018-12-23T03:58:18.565Z,20.95
2018-12-23T04:00:46.224Z,20.70
2018-12-23T04:03:13.649Z,20.10
2018-12-23T04:05:41.353Z,20.37
2018-12-23T04:08:08.719Z,53.10
2018-12-23T04:10:36.108Z,19.92
2018-12-23T04:13:03.721Z,19.50
2018-12-23T04:15:31.625Z,17.95
2018-12-23T04:17:59.464Z,20.27
2018-12-23T04:20:26.812Z,21.12
2018-12-23T04:22:54.476Z,19.70
2018-12-23T04:25:22.118Z,19.82
2018-12-23T04:27:50.003Z,19.07
2018-12-23T04:30:17.450Z,20.32
2018-12-23T04:32:45.943Z,18.90
2018-12-23T04:35:13.521Z,19.05
2018-12-23T04:37:41.479Z,18.70
2018-12-23T04:40:09.196Z,18.23
2018-12-23T04:42:36.844Z,17.60
2018-12-23T04:45:04.605Z,17.85
2018-12-23T04:47:31.972Z,17.40
2018-12-23T04:49:59.385Z,18.40
2018-12-23T04:52:28.285Z,18.27
2018-12-23T04:54:56.537Z,17.62
2018-12-23T04:57:23.916Z,18.00
2018-12-23T04:59:51.345Z,16.60
2018-12-23T05:02:19.324Z,17.23
2018-12-23T05:04:46.657Z,17.40
2018-12-23T05:07:14.854Z,17.35
2018-12-23T05:09:42.209Z,17.90
2018-12-23T05:12:09.524Z,16.63
2018-12-23T05:14:36.837Z,17.70
2018-12-23T05:17:04.205Z,17.82
2018-12-23T05:19:32.041Z,17.90
2018-12-23T05:21:59.405Z,17.37
2018-12-23T05:24:26.778Z,16.83
2018-12-23T05:26:54.230Z,17.30
2018-12-23T05:29:22.177Z,18.07
2018-12-23T05:31:49.533Z,17.73
2018-12-23T05:34:16.885Z,18.20
2018-12-23T05:36:52.337Z,18.10
2018-12-23T05:39:14.366Z,17.53
2018-12-23T05:41:41.897Z,20.02
2018-12-23T05:44:09.250Z,16.87
2018-12-23T05:46:37.250Z,16.55
2018-12-23T05:49:05.117Z,16.57
2018-12-23T05:51:33.229Z,16.85
2018-12-23T05:54:01.225Z,15.70
2018-12-23T05:56:28.591Z,16.07
2018-12-23T05:58:56.358Z,16.35
2018-12-23T06:01:23.716Z,14.53
2018-12-23T06:03:51.086Z,14.65
2018-12-23T06:06:18.537Z,13.90
2018-12-23T06:08:45.976Z,13.25
2018-12-23T06:11:14.045Z,13.35
2018-12-23T06:13:41.701Z,13.70
2018-12-23T06:16:09.401Z,13.90
2018-12-23T06:18:36.765Z,13.90
2018-12-23T06:21:06.531Z,13.90
2018-12-23T06:23:33.862Z,13.70
2018-12-23T06:26:01.627Z,14.00
2018-12-23T06:28:29.101Z,13.72
2018-12-23T06:30:56.469Z,13.60
2018-12-23T06:33:24.362Z,14.20
2018-12-23T06:35:51.717Z,13.95
2018-12-23T06:38:19.389Z,13.28
2018-12-23T06:40:47.128Z,13.22
2018-12-23T06:43:14.816Z,14.50
2018-12-23T06:45:42.884Z,13.83
2018-12-23T06:48:10.757Z,14.60
2018-12-23T06:50:39.214Z,14.35
2018-12-23T06:53:06.624Z,14.45
2018-12-23T06:55:34.249Z,14.73
2018-12-23T06:58:01.618Z,15.58
2018-12-23T07:00:29.303Z,15.55
2018-12-23T07:02:56.806Z,15.40
2018-12-23T07:05:24.176Z,14.90
2018-12-23T07:07:51.512Z,15.50
2018-12-23T07:10:19.385Z,15.60
2018-12-23T07:12:47.377Z,15.43
2018-12-23T07:15:15.258Z,15.10
2018-12-23T07:17:42.628Z,15.70
2018-12-23T07:20:09.973Z,15.60
2018-12-23T07:22:37.635Z,15.10
2018-12-23T07:25:05.145Z,15.10
2018-12-23T07:27:32.535Z,15.18
2018-12-23T07:30:00.147Z,14.00
2018-12-23T07:32:27.960Z,13.40
2018-12-23T07:34:56.245Z,12.60
2018-12-23T07:37:27.514Z,11.80
2018-12-23T07:39:53.196Z,11.45
2018-12-23T07:42:21.033Z,10.70
2018-12-23T07:44:48.401Z,10.13
2018-12-23T07:47:16.503Z,10.88
2018-12-23T07:49:44.468Z,10.50
2018-12-23T07:52:12.303Z,9.88
2018-12-23T07:54:39.949Z,9.20
2018-12-23T07:57:07.393Z,8.90
2018-12-23T07:59:35.222Z,8.30
2018-12-23T08:02:04.487Z,8.38
2018-12-23T08:04:32.068Z,8.10
2018-12-23T08:06:59.983Z,7.05
2018-12-23T08:09:27.392Z,7.55
2018-12-23T08:11:54.712Z,7.50
2018-12-23T08:14:22.425Z,6.78
2018-12-23T08:16:50.086Z,6.28
2018-12-23T08:19:18.296Z,5.90
2018-12-23T08:21:45.666Z,5.83
2018-12-23T08:24:13.344Z,5.50
2018-12-23T08:26:41.055Z,4.80
2018-12-23T08:29:08.408Z,4.42
2018-12-23T08:31:35.845Z,3.90
2018-12-23T08:34:04.337Z,3.90
2018-12-23T08:36:31.861Z,4.10
2018-12-23T08:38:59.176Z,4.00
2018-12-23T08:41:27.728Z,4.40
2018-12-23T08:43:55.260Z,4.65
2018-12-23T08:46:22.701Z,5.20
2018-12-23T08:48:50.189Z,4.78
2018-12-23T08:51:17.625Z,5.53
2018-12-23T08:53:44.960Z,5.80
2018-12-23T08:56:12.512Z,5.90
2018-12-23T08:58:40.093Z,6.10
2018-12-23T09:01:07.471Z,6.30
2018-12-23T09:03:34.960Z,6.50
2018-12-23T09:06:02.568Z,6.45
2018-12-23T09:08:29.971Z,6.05
2018-12-23T09:10:57.395Z,7.10
2018-12-23T09:13:25.168Z,6.42
2018-12-23T09:15:52.957Z,5.70
2018-12-23T09:18:20.325Z,4.58
2018-12-23T09:20:47.718Z,4.30
2018-12-23T09:23:15.329Z,3.60
2018-12-23T09:25:42.893Z,3.20
2018-12-23T09:28:11.180Z,4.30
2018-12-23T09:30:38.938Z,4.50
2018-12-23T09:33:06.910Z,3.50
2018-12-23T09:35:34.884Z,2.70
2018-12-23T09:38:02.256Z,3.42
2018-12-23T09:40:29.658Z,3.10
2018-12-23T09:42:57.249Z,3.60
2018-12-23T09:45:24.577Z,4.05
2018-12-23T09:47:51.933Z,5.08
2018-12-23T09:50:19.297Z,4.90
2018-12-23T09:52:46.882Z,5.95
2018-12-23T09:55:14.314Z,7.12
2018-12-23T09:57:41.826Z,7.75
2018-12-23T10:00:09.222Z,7.63
2018-12-23T10:02:36.593Z,9.53
2018-12-23T10:05:04.776Z,8.68
2018-12-23T10:07:32.545Z,8.40
2018-12-23T10:10:00.392Z,8.75
2018-12-23T10:12:28.069Z,8.03
2018-12-23T10:14:55.837Z,9.33
2018-12-23T10:17:23.238Z,9.90
2018-12-23T10:19:51.282Z,11.00
2018-12-23T10:22:18.902Z,8.30
2018-12-23T10:24:47.257Z,8.20
2018-12-23T10:30:50.443Z,8.13
2018-12-23T10:33:19.998Z,8.10
2018-12-23T10:35:49.988Z,8.00
2018-12-23T10:38:20.491Z,8.30
2018-12-23T10:40:51.036Z,9.00
2018-12-23T10:43:20.403Z,8.50
2018-12-23T10:45:51.325Z,9.60
2018-12-23T10:48:21.568Z,9.30
2018-12-23T10:50:51.530Z,9.80
2018-12-23T10:53:21.520Z,9.73
2018-12-23T10:55:53.074Z,11.40
2018-12-23T10:58:22.052Z,9.93
2018-12-23T11:00:52.437Z,10.60
2018-12-23T11:03:22.447Z,9.05
2018-12-23T11:05:51.188Z,9.90
2018-12-23T11:08:26.710Z,10.23
2018-12-23T11:10:50.090Z,9.90
2018-12-23T11:13:18.774Z,9.45
2018-12-23T11:15:47.466Z,9.68
2018-12-23T11:18:16.546Z,9.03
2018-12-23T11:20:44.855Z,7.90
2018-12-23T11:23:13.835Z,8.40
2018-12-23T11:25:42.840Z,8.15
2018-12-23T11:28:11.151Z,8.10
2018-12-23T11:30:41.111Z,8.35
2018-12-23T11:33:09.699Z,8.73
2018-12-23T11:35:38.698Z,14.05
2018-12-23T11:38:06.951Z,9.03
2018-12-23T11:40:35.231Z,8.93
2018-12-23T11:43:03.585Z,7.58
2018-12-23T11:45:31.963Z,8.50
2018-12-23T11:48:00.369Z,10.58
2018-12-23T11:50:28.673Z,7.28
2018-12-23T11:52:56.979Z,7.50
2018-12-23T11:55:25.267Z,9.78
2018-12-23T11:57:53.576Z,6.70
2018-12-23T12:00:21.871Z,6.90
2018-12-23T12:02:50.718Z,6.80
2018-12-23T12:05:19.755Z,6.65
2018-12-23T12:07:48.167Z,6.05
2018-12-23T12:10:16.915Z,5.47
2018-12-23T12:12:45.270Z,5.10
2018-12-23T12:15:13.882Z,4.40
2018-12-23T12:17:42.154Z,4.80
2018-12-23T12:20:10.764Z,4.50
2018-12-23T12:22:41.178Z,3.77
2018-12-23T12:25:08.995Z,2.90
2018-12-23T12:27:37.335Z,3.10
2018-12-23T12:30:05.835Z,3.05
2018-12-23T12:32:34.470Z,2.87
2018-12-23T12:35:02.772Z,3.00
2018-12-23T12:37:31.091Z,7.80
2018-12-23T12:39:59.374Z,7.22
2018-12-23T12:42:28.014Z,6.58
2018-12-23T12:44:56.319Z,5.25
2018-12-23T12:47:24.915Z,5.20
2018-12-23T12:49:53.520Z,6.05
2018-12-23T12:52:21.830Z,6.00
2018-12-23T12:54:50.723Z,6.80
2018-12-23T12:57:19.027Z,6.20
2018-12-23T12:59:47.628Z,6.67
2018-12-23T13:02:16.280Z,6.50
2018-12-23T13:04:45.273Z,7.67
2018-12-23T13:07:13.566Z,8.53
2018-12-23T13:09:42.231Z,8.58
2018-12-23T13:12:10.926Z,9.13
2018-12-23T13:14:39.914Z,8.80
2018-12-23T13:17:08.200Z,8.40
2018-12-23T13:19:37.500Z,8.75
2018-12-23T13:22:06.561Z,8.75
2018-12-23T13:24:34.873Z,10.25
2018-12-23T13:27:03.239Z,8.80
2018-12-23T13:29:31.521Z,8.70
2018-12-23T13:31:59.916Z,12.53
2018-12-23T13:34:28.207Z,9.08
2018-12-23T13:36:59.938Z,9.58
2018-12-23T13:39:29.030Z,9.15
2018-12-23T13:42:34.530Z,13.00
2018-12-23T13:45:21.393Z,7.85
2018-12-23T13:48:06.776Z,7.67
2018-12-23T13:51:00.095Z,8.03
2018-12-23T13:53:43.303Z,7.40
2018-12-23T13:56:39.713Z,7.60
2018-12-23T13:59:19.008Z,9.25
2018-12-23T14:01:55.275Z,10.13
2018-12-23T14:04:48.972Z,8.90
2018-12-23T14:07:40.479Z,7.70
2018-12-23T14:10:30.940Z,8.80
2018-12-23T14:13:00.766Z,8.18
2018-12-23T14:15:29.283Z,9.43
2018-12-23T14:17:58.997Z,10.20
2018-12-23T14:20:27.444Z,12.20
2018-12-23T14:22:55.738Z,11.90
2018-12-23T14:25:24.049Z,11.43
2018-12-23T14:27:52.386Z,6.60
2018-12-23T14:30:20.683Z,5.30
2018-12-23T14:32:49.006Z,4.20
2018-12-23T14:35:18.622Z,2.98
2018-12-23T14:37:47.394Z,3.05
2018-12-23T14:40:15.783Z,2.17
2018-12-23T14:42:45.113Z,3.30
2018-12-23T14:45:13.931Z,6.25
2018-12-23T14:47:42.256Z,4.40
2018-12-23T14:50:12.191Z,4.00
2018-12-23T14:52:40.819Z,5.35
2018-12-23T14:55:09.538Z,6.80
2018-12-23T14:57:37.823Z,8.45
2018-12-23T15:00:06.706Z,8.30
2018-12-23T15:02:35.027Z,8.38
2018-12-23T15:05:03.354Z,9.15
2018-12-23T15:07:31.678Z,7.90
2018-12-23T15:10:00.298Z,8.83
2018-12-23T15:12:28.627Z,9.30
2018-12-23T15:14:56.966Z,8.50
2018-12-23T15:17:25.221Z,9.00
2018-12-23T15:19:53.583Z,8.80
2018-12-23T15:22:21.910Z,9.60
2018-12-23T15:24:50.216Z,8.13
2018-12-23T15:27:18.547Z,7.87
2018-12-23T15:29:47.252Z,8.03
2018-12-23T15:32:15.843Z,8.05
2018-12-23T15:34:44.486Z,7.50
2018-12-23T15:37:12.815Z,9.28
2018-12-23T15:39:42.750Z,9.30
2018-12-23T15:42:11.454Z,9.50
2018-12-23T15:44:39.797Z,10.28
2018-12-23T15:47:08.534Z,10.88
2018-12-23T15:49:36.826Z,9.30
2018-12-23T15:52:05.131Z,10.13
2018-12-23T15:54:34.293Z,10.00
2018-12-23T15:57:03.493Z,11.10
2018-12-23T15:59:32.183Z,10.80
2018-12-23T16:02:00.863Z,10.00
2018-12-23T16:04:29.554Z,10.13
2018-12-23T16:06:57.856Z,8.70
2018-12-23T16:09:26.151Z,7.00
2018-12-23T16:11:54.511Z,6.35
2018-12-23T16:14:22.809Z,6.50
2018-12-23T16:16:51.110Z,6.90
2018-12-23T16:19:19.411Z,7.08
2018-12-23T16:21:48.096Z,7.05
2018-12-23T16:24:16.373Z,7.70
2018-12-23T16:26:45.067Z,7.47
2018-12-23T16:29:13.675Z,4.75
2018-12-23T16:31:42.326Z,5.17
2018-12-23T16:34:11.107Z,4.60
2018-12-23T16:36:39.492Z,4.20
2018-12-23T16:39:08.114Z,6.85
2018-12-23T16:41:37.283Z,5.50
2018-12-23T16:44:05.579Z,4.30
2018-12-23T16:46:34.281Z,4.30
2018-12-23T16:49:02.606Z,4.22
2018-12-23T16:51:30.990Z,4.20
2018-12-23T16:54:00.000Z,4.72
2018-12-23T16:56:28.279Z,6.87
2018-12-23T16:58:56.855Z,3.98
2018-12-23T17:01:25.143Z,4.30
2018-12-23T17:03:53.463Z,5.37
2018-12-23T17:06:22.414Z,5.20
2018-12-23T17:08:51.091Z,4.62
2018-12-23T17:11:19.782Z,4.50
2018-12-23T17:13:48.074Z,4.17
2018-12-23T17:16:16.363Z,4.25
2018-12-23T17:18:44.695Z,6.17
2018-12-23T17:21:13.018Z,5.20
2018-12-23T17:23:41.336Z,5.05
2018-12-23T17:26:10.880Z,4.40
2018-12-23T17:28:39.166Z,4.30
2018-12-23T17:31:07.767Z,4.30
2018-12-23T17:33:36.208Z,4.50
2018-12-23T17:36:04.829Z,4.60
2018-12-23T17:38:33.563Z,4.20
2018-12-23T17:41:01.963Z,3.90
2018-12-23T17:43:30.390Z,4.20
2018-12-23T17:45:58.708Z,3.72
2018-12-23T17:48:27.306Z,3.95
2018-12-23T17:50:55.584Z,3.90
2018-12-23T17:53:23.934Z,3.75
2018-12-23T17:55:52.213Z,3.70
2018-12-23T17:58:20.834Z,3.75
2018-12-23T18:00:49.106Z,3.40
2018-12-23T18:03:17.419Z,3.90
2018-12-23T18:05:46.170Z,3.30
2018-12-23T18:08:14.445Z,3.80
2018-12-23T18:10:42.784Z,3.10
2018-12-23T18:13:12.200Z,4.00
2018-12-23T18:15:40.902Z,3.70
2018-12-23T18:18:09.232Z,4.00
2018-12-23T18:20:37.508Z,4.65
2018-12-23T18:23:05.824Z,4.25
2018-12-23T18:25:34.158Z,3.70
2018-12-23T18:28:02.815Z,3.83
2018-12-23T18:30:31.379Z,4.30
2018-12-23T18:32:59.723Z,5.30
2018-12-23T18:35:28.728Z,4.50
2018-12-23T18:37:57.360Z,4.83
2018-12-23T18:40:33.123Z,4.90
2018-12-23T18:42:56.664Z,5.20
2018-12-23T18:45:25.070Z,5.00
2018-12-23T18:47:53.420Z,6.20
2018-12-23T18:50:21.729Z,5.80
2018-12-23T18:52:51.481Z,5.40
2018-12-23T18:55:20.005Z,5.45
2018-12-23T18:57:49.314Z,5.30
2018-12-23T19:00:18.918Z,6.60
2018-12-23T19:02:48.994Z,7.05
2018-12-23T19:05:17.314Z,13.83
2018-12-23T19:07:47.154Z,14.95
2018-12-23T19:10:19.081Z,22.60
2018-12-23T19:13:05.586Z,12.20
2018-12-23T19:16:02.441Z,6.65
2018-12-23T19:18:52.544Z,5.50
2018-12-23T19:21:28.303Z,6.55
2018-12-23T19:24:18.675Z,6.10
2018-12-23T19:27:06.615Z,5.35
2018-12-23T19:29:57.418Z,5.75
2018-12-23T19:32:54.163Z,6.00
2018-12-23T19:35:35.549Z,5.33
2018-12-23T19:38:23.263Z,5.40
2018-12-23T19:41:09.065Z,6.08
2018-12-23T19:43:55.204Z,5.50
2018-12-23T19:46:41.763Z,6.17
2018-12-23T19:49:51.142Z,7.40
2018-12-23T19:52:27.260Z,6.28
2018-12-23T19:55:20.353Z,6.75
2018-12-23T19:57:55.711Z,7.25
2018-12-23T20:00:35.927Z,6.13
2018-12-23T20:03:10.211Z,6.55
2018-12-23T20:06:07.197Z,7.10
2018-12-23T20:09:12.964Z,6.55
2018-12-23T20:11:58.445Z,6.87
2018-12-23T20:14:47.575Z,6.60
2018-12-23T20:17:43.699Z,6.72
2018-12-23T20:20:29.999Z,5.83
2018-12-23T20:23:21.311Z,6.30
2018-12-23T20:26:17.701Z,6.42
2018-12-23T20:29:23.526Z,6.17
2018-12-23T20:32:13.528Z,6.53
2018-12-23T20:35:00.897Z,6.92
2018-12-23T20:37:37.449Z,6.05
2018-12-23T20:40:34.007Z,8.65
2018-12-23T20:43:13.915Z,9.83
2018-12-23T20:46:10.761Z,9.08
2018-12-23T20:48:51.840Z,26.15
2018-12-23T20:51:30.507Z,7.40
2018-12-23T20:54:02.521Z,6.23
2018-12-23T20:56:52.935Z,4.15
2018-12-23T20:59:40.744Z,4.10
2018-12-23T21:02:28.498Z,3.40
2018-12-23T21:05:32.083Z,3.40
2018-12-23T21:08:18.456Z,3.90
2018-12-23T21:11:15.970Z,4.12
2018-12-23T21:14:01.146Z,4.10
2018-12-23T21:16:37.431Z,4.67
2018-12-23T21:19:18.022Z,4.40
2018-12-23T21:21:55.806Z,4.40
2018-12-23T21:24:58.600Z,4.42
2018-12-23T21:27:44.788Z,4.10
2018-12-23T21:30:31.382Z,4.50
2018-12-23T21:33:24.807Z,4.70
2018-12-23T21:36:12.123Z,4.83
2018-12-23T21:39:18.219Z,5.10
2018-12-23T21:41:55.850Z,5.90
2018-12-23T21:44:49.480Z,6.97
2018-12-23T21:47:45.976Z,12.50
2018-12-23T21:50:36.327Z,11.43
2018-12-23T21:53:32.746Z,10.98
2018-12-23T21:56:18.778Z,7.10
2018-12-23T21:59:18.024Z,11.97
2018-12-23T22:02:01.434Z,13.75
2018-12-23T22:04:47.364Z,9.95
2018-12-23T22:07:34.679Z,11.30
2018-12-23T22:10:16.422Z,10.88
2018-12-23T22:13:02.433Z,9.70
2018-12-23T22:15:31.151Z,8.88
2018-12-23T22:17:59.439Z,8.90
2018-12-23T22:20:28.029Z,9.08
2018-12-23T22:22:58.363Z,10.60
2018-12-23T22:25:26.322Z,11.93
2018-12-23T22:27:55.399Z,15.05
2018-12-23T22:30:23.711Z,19.02
2018-12-23T22:32:52.234Z,9.15
2018-12-23T22:35:20.799Z,10.50
2018-12-23T22:37:49.259Z,8.10
2018-12-23T22:40:18.014Z,8.30
2018-12-23T22:42:46.655Z,6.70
2018-12-23T22:45:14.982Z,7.20
2018-12-23T22:47:43.578Z,7.90
2018-12-23T22:50:12.119Z,7.70
2018-12-23T22:52:40.686Z,8.18
2018-12-23T22:55:09.246Z,8.10
2018-12-23T22:57:37.817Z,7.80
2018-12-23T23:00:06.826Z,7.30
2018-12-23T23:02:35.144Z,7.10
2018-12-23T23:05:03.443Z,5.37
2018-12-23T23:07:32.439Z,4.50
2018-12-23T23:10:01.016Z,5.50
2018-12-23T23:12:29.297Z,4.00
2018-12-23T23:14:57.646Z,3.77
2018-12-23T23:17:25.978Z,3.85
2018-12-23T23:19:54.242Z,4.00
2018-12-23T23:22:22.945Z,3.87
2018-12-23T23:24:51.596Z,3.90
2018-12-23T23:27:21.195Z,3.67
2018-12-23T23:29:49.759Z,3.62
2018-12-23T23:32:18.032Z,3.20
2018-12-23T23:34:47.364Z,3.50
2018-12-23T23:37:15.960Z,3.40
2018-12-23T23:39:44.735Z,3.83
2018-12-23T23:42:13.346Z,3.60
2018-12-23T23:44:41.631Z,3.50
2018-12-23T23:47:09.951Z,3.40
2018-12-23T23:49:38.678Z,3.90
2018-12-23T23:52:07.067Z,4.17
2018-12-23T23:54:35.735Z,4.60
2018-12-23T23:57:04.023Z,4.70
2018-12-23T23:59:32.359Z,4.55
